sensor_id;sensor_type;location;lat;lon;timestamp;temperature;humidity
20384;DHT22;46458;50.966;7.002;2023-06-24T00:00:36;22.00;99.90
20384;DHT22;46458;50.966;7.002;2023-06-24T00:03:05;21.90;99.90
20384;DHT22;46458;50.966;7.002;2023-06-24T00:05:37;21.90;99.90
20384;DHT22;46458;50.966;7.002;2023-06-24T00:08:06;21.90;99.90
20384;DHT22;46458;50.966;7.002;2023-06-24T00:10:37;21.80;99.90
20384;DHT22;46458;50.966;7.002;2023-06-24T00:13:06;21.80;99.90
20384;DHT22;46458;50.966;7.002;2023-06-24T00:15:36;21.80;99.90
20384;DHT22;46458;50.966;7.002;2023-06-24T00:18:12;21.70;99.90
20384;DHT22;46458;50.966;7.002;2023-06-24T00:20:43;21.70;99.90
20384;DHT22;46458;50.966;7.002;2023-06-24T00:23:13;21.60;99.90
20384;DHT22;46458;50.966;7.002;2023-06-24T00:25:44;21.60;99.90
20384;DHT22;46458;50.966;7.002;2023-06-24T00:28:16;21.50;99.90
20384;DHT22;46458;50.966;7.002;2023-06-24T00:30:45;21.40;99.90
20384;DHT22;46458;50.966;7.002;2023-06-24T00:33:14;21.30;99.90
20384;DHT22;46458;50.966;7.002;2023-06-24T00:35:48;21.30;99.90
20384;DHT22;46458;50.966;7.002;2023-06-24T00:38:19;21.30;99.90
20384;DHT22;46458;50.966;7.002;2023-06-24T00:40:49;21.20;99.90
20384;DHT22;46458;50.966;7.002;2023-06-24T00:43:18;21.20;99.90
20384;DHT22;46458;50.966;7.002;2023-06-24T00:45:47;21.20;99.90
20384;DHT22;46458;50.966;7.002;2023-06-24T00:48:16;21.20;99.90
20384;DHT22;46458;50.966;7.002;2023-06-24T00:50:48;21.10;99.90
20384;DHT22;46458;50.966;7.002;2023-06-24T00:53:18;21.10;99.90
20384;DHT22;46458;50.966;7.002;2023-06-24T00:55:57;21.10;99.90
20384;DHT22;46458;50.966;7.002;2023-06-24T00:58:29;21.00;99.90
20384;DHT22;46458;50.966;7.002;2023-06-24T01:00:58;21.00;99.90
20384;DHT22;46458;50.966;7.002;2023-06-24T01:03:28;21.00;99.90
20384;DHT22;46458;50.966;7.002;2023-06-24T01:06:00;20.90;99.90
20384;DHT22;46458;50.966;7.002;2023-06-24T01:08:29;20.90;99.90
20384;DHT22;46458;50.966;7.002;2023-06-24T01:10:58;20.90;99.90
20384;DHT22;46458;50.966;7.002;2023-06-24T01:13:27;20.80;99.90
20384;DHT22;46458;50.966;7.002;2023-06-24T01:15:58;20.80;99.90
20384;DHT22;46458;50.966;7.002;2023-06-24T01:18:39;20.80;99.90
20384;DHT22;46458;50.966;7.002;2023-06-24T01:21:17;20.80;99.90
20384;DHT22;46458;50.966;7.002;2023-06-24T01:24:15;20.80;99.90
20384;DHT22;46458;50.966;7.002;2023-06-24T01:27:10;20.70;99.90
20384;DHT22;46458;50.966;7.002;2023-06-24T01:29:56;20.70;99.90
20384;DHT22;46458;50.966;7.002;2023-06-24T01:32:37;20.70;99.90
20384;DHT22;46458;50.966;7.002;2023-06-24T01:35:11;20.70;99.90
20384;DHT22;46458;50.966;7.002;2023-06-24T01:37:42;20.70;99.90
20384;DHT22;46458;50.966;7.002;2023-06-24T01:40:20;20.70;99.90
20384;DHT22;46458;50.966;7.002;2023-06-24T01:42:50;20.70;99.90
20384;DHT22;46458;50.966;7.002;2023-06-24T01:45:23;20.70;99.90
20384;DHT22;46458;50.966;7.002;2023-06-24T01:48:00;20.60;99.90
20384;DHT22;46458;50.966;7.002;2023-06-24T01:50:32;20.60;99.90
20384;DHT22;46458;50.966;7.002;2023-06-24T01:53:04;20.60;99.90
20384;DHT22;46458;50.966;7.002;2023-06-24T01:55:34;20.60;99.90
20384;DHT22;46458;50.966;7.002;2023-06-24T01:58:06;20.50;99.90
20384;DHT22;46458;50.966;7.002;2023-06-24T02:00:37;20.50;99.90
20384;DHT22;46458;50.966;7.002;2023-06-24T02:03:10;20.50;99.90
20384;DHT22;46458;50.966;7.002;2023-06-24T02:05:41;20.50;99.90
20384;DHT22;46458;50.966;7.002;2023-06-24T02:08:11;20.10;99.90
20384;DHT22;46458;50.966;7.002;2023-06-24T02:10:41;20.00;99.90
20384;DHT22;46458;50.966;7.002;2023-06-24T02:13:13;19.90;99.90
20384;DHT22;46458;50.966;7.002;2023-06-24T02:15:42;19.80;99.90
20384;DHT22;46458;50.966;7.002;2023-06-24T02:18:15;19.70;99.90
20384;DHT22;46458;50.966;7.002;2023-06-24T02:20:49;19.60;99.90
20384;DHT22;46458;50.966;7.002;2023-06-24T02:23:19;19.60;99.90
20384;DHT22;46458;50.966;7.002;2023-06-24T02:25:49;19.60;99.90
20384;DHT22;46458;50.966;7.002;2023-06-24T02:28:19;19.70;99.90
20384;DHT22;46458;50.966;7.002;2023-06-24T02:30:49;19.80;99.90
20384;DHT22;46458;50.966;7.002;2023-06-24T02:33:21;19.90;99.90
20384;DHT22;46458;50.966;7.002;2023-06-24T02:35:50;20.00;99.90
20384;DHT22;46458;50.966;7.002;2023-06-24T02:38:20;20.00;99.90
20384;DHT22;46458;50.966;7.002;2023-06-24T02:40:49;20.00;99.90
20384;DHT22;46458;50.966;7.002;2023-06-24T02:43:18;20.10;99.90
20384;DHT22;46458;50.966;7.002;2023-06-24T02:45:50;20.00;99.90
20384;DHT22;46458;50.966;7.002;2023-06-24T02:48:23;20.00;99.90
20384;DHT22;46458;50.966;7.002;2023-06-24T02:50:53;19.90;99.90
20384;DHT22;46458;50.966;7.002;2023-06-24T02:53:26;19.70;99.90
20384;DHT22;46458;50.966;7.002;2023-06-24T02:55:57;19.60;99.90
20384;DHT22;46458;50.966;7.002;2023-06-24T02:58:28;19.60;99.90
20384;DHT22;46458;50.966;7.002;2023-06-24T03:01:04;19.70;99.90
20384;DHT22;46458;50.966;7.002;2023-06-24T03:03:48;19.60;99.90
20384;DHT22;46458;50.966;7.002;2023-06-24T03:06:18;19.30;99.90
20384;DHT22;46458;50.966;7.002;2023-06-24T03:08:48;19.30;99.90
20384;DHT22;46458;50.966;7.002;2023-06-24T03:11:21;19.30;99.90
20384;DHT22;46458;50.966;7.002;2023-06-24T03:13:51;19.40;99.90
20384;DHT22;46458;50.966;7.002;2023-06-24T03:16:22;19.50;99.90
20384;DHT22;46458;50.966;7.002;2023-06-24T03:19:01;19.40;99.90
20384;DHT22;46458;50.966;7.002;2023-06-24T03:21:30;19.50;99.90
20384;DHT22;46458;50.966;7.002;2023-06-24T03:24:09;19.40;99.90
20384;DHT22;46458;50.966;7.002;2023-06-24T03:26:39;19.50;99.90
20384;DHT22;46458;50.966;7.002;2023-06-24T03:29:12;19.50;99.90
20384;DHT22;46458;50.966;7.002;2023-06-24T03:31:50;19.50;99.90
20384;DHT22;46458;50.966;7.002;2023-06-24T03:34:24;19.50;99.90
20384;DHT22;46458;50.966;7.002;2023-06-24T03:37:03;19.40;99.90
20384;DHT22;46458;50.966;7.002;2023-06-24T03:39:38;19.30;99.90
20384;DHT22;46458;50.966;7.002;2023-06-24T03:42:07;19.30;99.90
20384;DHT22;46458;50.966;7.002;2023-06-24T03:44:36;19.20;99.90
20384;DHT22;46458;50.966;7.002;2023-06-24T03:47:05;19.20;99.90
20384;DHT22;46458;50.966;7.002;2023-06-24T03:49:37;19.30;99.90
20384;DHT22;46458;50.966;7.002;2023-06-24T03:52:06;19.30;99.90
20384;DHT22;46458;50.966;7.002;2023-06-24T03:54:35;19.30;99.90
20384;DHT22;46458;50.966;7.002;2023-06-24T03:57:06;19.20;99.90
20384;DHT22;46458;50.966;7.002;2023-06-24T03:59:38;19.20;99.90
20384;DHT22;46458;50.966;7.002;2023-06-24T04:02:10;19.20;99.90
20384;DHT22;46458;50.966;7.002;2023-06-24T04:04:42;19.10;99.90
20384;DHT22;46458;50.966;7.002;2023-06-24T04:07:11;19.00;99.90
20384;DHT22;46458;50.966;7.002;2023-06-24T04:09:40;19.10;99.90
20384;DHT22;46458;50.966;7.002;2023-06-24T04:12:09;19.30;99.90
20384;DHT22;46458;50.966;7.002;2023-06-24T04:14:41;19.30;99.90
20384;DHT22;46458;50.966;7.002;2023-06-24T04:17:12;19.20;99.90
20384;DHT22;46458;50.966;7.002;2023-06-24T04:19:44;19.30;99.90
20384;DHT22;46458;50.966;7.002;2023-06-24T04:22:13;19.30;99.90
20384;DHT22;46458;50.966;7.002;2023-06-24T04:24:42;19.30;99.90
20384;DHT22;46458;50.966;7.002;2023-06-24T04:27:11;19.30;99.90
20384;DHT22;46458;50.966;7.002;2023-06-24T04:29:40;19.30;99.90
20384;DHT22;46458;50.966;7.002;2023-06-24T04:32:09;19.30;99.90
20384;DHT22;46458;50.966;7.002;2023-06-24T04:34:38;19.30;99.90
20384;DHT22;46458;50.966;7.002;2023-06-24T04:37:10;19.30;99.90
20384;DHT22;46458;50.966;7.002;2023-06-24T04:39:44;19.30;99.90
20384;DHT22;46458;50.966;7.002;2023-06-24T04:42:13;19.30;99.90
20384;DHT22;46458;50.966;7.002;2023-06-24T04:44:41;19.40;99.90
20384;DHT22;46458;50.966;7.002;2023-06-24T04:47:13;19.40;99.90
20384;DHT22;46458;50.966;7.002;2023-06-24T04:49:46;19.30;99.90
20384;DHT22;46458;50.966;7.002;2023-06-24T04:52:17;19.20;99.90
20384;DHT22;46458;50.966;7.002;2023-06-24T04:54:46;19.10;99.90
20384;DHT22;46458;50.966;7.002;2023-06-24T04:57:24;19.10;99.90
20384;DHT22;46458;50.966;7.002;2023-06-24T04:59:53;19.20;99.90
20384;DHT22;46458;50.966;7.002;2023-06-24T05:02:23;19.30;99.90
20384;DHT22;46458;50.966;7.002;2023-06-24T05:04:52;19.30;99.90
20384;DHT22;46458;50.966;7.002;2023-06-24T05:07:24;19.40;99.90
20384;DHT22;46458;50.966;7.002;2023-06-24T05:09:52;19.50;99.90
20384;DHT22;46458;50.966;7.002;2023-06-24T05:12:24;19.50;99.90
20384;DHT22;46458;50.966;7.002;2023-06-24T05:14:52;19.50;99.90
20384;DHT22;46458;50.966;7.002;2023-06-24T05:17:21;19.40;99.90
20384;DHT22;46458;50.966;7.002;2023-06-24T05:19:50;19.40;99.90
20384;DHT22;46458;50.966;7.002;2023-06-24T05:22:19;19.20;99.90
20384;DHT22;46458;50.966;7.002;2023-06-24T05:24:51;19.30;99.90
20384;DHT22;46458;50.966;7.002;2023-06-24T05:27:20;19.40;99.90
20384;DHT22;46458;50.966;7.002;2023-06-24T05:29:49;19.50;99.90
20384;DHT22;46458;50.966;7.002;2023-06-24T05:32:18;19.50;99.90
20384;DHT22;46458;50.966;7.002;2023-06-24T05:34:48;19.50;99.90
20384;DHT22;46458;50.966;7.002;2023-06-24T05:37:18;19.60;99.90
20384;DHT22;46458;50.966;7.002;2023-06-24T05:39:46;19.60;99.90
20384;DHT22;46458;50.966;7.002;2023-06-24T05:42:18;19.60;99.90
20384;DHT22;46458;50.966;7.002;2023-06-24T05:44:48;19.70;99.90
20384;DHT22;46458;50.966;7.002;2023-06-24T05:47:19;19.70;99.90
20384;DHT22;46458;50.966;7.002;2023-06-24T05:49:48;19.70;99.90
20384;DHT22;46458;50.966;7.002;2023-06-24T05:52:17;19.80;99.90
20384;DHT22;46458;50.966;7.002;2023-06-24T05:54:49;19.90;99.90
20384;DHT22;46458;50.966;7.002;2023-06-24T05:57:23;20.10;99.90
20384;DHT22;46458;50.966;7.002;2023-06-24T05:59:52;20.20;99.90
20384;DHT22;46458;50.966;7.002;2023-06-24T06:02:21;20.30;99.90
20384;DHT22;46458;50.966;7.002;2023-06-24T06:04:50;20.40;99.90
20384;DHT22;46458;50.966;7.002;2023-06-24T06:07:19;20.30;99.90
20384;DHT22;46458;50.966;7.002;2023-06-24T06:09:50;20.30;99.90
20384;DHT22;46458;50.966;7.002;2023-06-24T06:12:22;20.40;99.90
20384;DHT22;46458;50.966;7.002;2023-06-24T06:14:54;20.50;99.90
20384;DHT22;46458;50.966;7.002;2023-06-24T06:17:23;20.60;99.90
20384;DHT22;46458;50.966;7.002;2023-06-24T06:19:52;20.50;99.90
20384;DHT22;46458;50.966;7.002;2023-06-24T06:22:23;20.50;99.90
20384;DHT22;46458;50.966;7.002;2023-06-24T06:24:52;20.60;99.90
20384;DHT22;46458;50.966;7.002;2023-06-24T06:27:23;20.60;99.90
20384;DHT22;46458;50.966;7.002;2023-06-24T06:29:52;20.70;99.90
20384;DHT22;46458;50.966;7.002;2023-06-24T06:32:21;20.90;99.90
20384;DHT22;46458;50.966;7.002;2023-06-24T06:34:50;20.90;99.90
20384;DHT22;46458;50.966;7.002;2023-06-24T06:37:19;21.00;99.90
20384;DHT22;46458;50.966;7.002;2023-06-24T06:39:53;21.00;99.90
20384;DHT22;46458;50.966;7.002;2023-06-24T06:42:29;21.10;99.90
20384;DHT22;46458;50.966;7.002;2023-06-24T06:44:59;21.20;99.90
20384;DHT22;46458;50.966;7.002;2023-06-24T06:47:28;21.30;99.90
20384;DHT22;46458;50.966;7.002;2023-06-24T06:49:57;21.40;99.90
20384;DHT22;46458;50.966;7.002;2023-06-24T06:52:26;21.50;99.90
20384;DHT22;46458;50.966;7.002;2023-06-24T06:54:55;21.50;99.90
20384;DHT22;46458;50.966;7.002;2023-06-24T06:57:24;21.60;99.90
20384;DHT22;46458;50.966;7.002;2023-06-24T06:59:59;21.70;99.90
20384;DHT22;46458;50.966;7.002;2023-06-24T07:02:27;21.70;99.90
20384;DHT22;46458;50.966;7.002;2023-06-24T07:04:56;21.60;99.90
20384;DHT22;46458;50.966;7.002;2023-06-24T07:07:29;21.70;99.90
20384;DHT22;46458;50.966;7.002;2023-06-24T07:09:58;21.80;99.90
20384;DHT22;46458;50.966;7.002;2023-06-24T07:12:27;21.90;99.90
20384;DHT22;46458;50.966;7.002;2023-06-24T07:14:59;21.90;99.90
20384;DHT22;46458;50.966;7.002;2023-06-24T07:17:29;22.10;99.90
20384;DHT22;46458;50.966;7.002;2023-06-24T07:19:58;22.10;99.90
20384;DHT22;46458;50.966;7.002;2023-06-24T07:22:26;22.10;99.90
20384;DHT22;46458;50.966;7.002;2023-06-24T07:24:56;22.20;99.90
20384;DHT22;46458;50.966;7.002;2023-06-24T07:27:26;22.20;99.90
20384;DHT22;46458;50.966;7.002;2023-06-24T07:29:55;22.20;99.90
20384;DHT22;46458;50.966;7.002;2023-06-24T07:32:26;22.40;99.90
20384;DHT22;46458;50.966;7.002;2023-06-24T07:34:55;22.40;99.90
20384;DHT22;46458;50.966;7.002;2023-06-24T07:37:24;22.40;99.90
20384;DHT22;46458;50.966;7.002;2023-06-24T07:39:53;22.40;99.90
20384;DHT22;46458;50.966;7.002;2023-06-24T07:42:22;22.50;99.90
20384;DHT22;46458;50.966;7.002;2023-06-24T07:44:51;22.50;99.90
20384;DHT22;46458;50.966;7.002;2023-06-24T07:47:19;22.70;99.90
20384;DHT22;46458;50.966;7.002;2023-06-24T07:49:52;22.80;99.90
20384;DHT22;46458;50.966;7.002;2023-06-24T07:52:21;22.90;99.90
20384;DHT22;46458;50.966;7.002;2023-06-24T07:54:50;23.00;99.90
20384;DHT22;46458;50.966;7.002;2023-06-24T07:57:22;22.90;99.90
20384;DHT22;46458;50.966;7.002;2023-06-24T07:59:50;22.90;99.90
20384;DHT22;46458;50.966;7.002;2023-06-24T08:02:20;23.10;99.90
20384;DHT22;46458;50.966;7.002;2023-06-24T08:04:52;23.20;99.90
20384;DHT22;46458;50.966;7.002;2023-06-24T08:07:21;23.20;99.90
20384;DHT22;46458;50.966;7.002;2023-06-24T08:09:50;23.30;99.90
20384;DHT22;46458;50.966;7.002;2023-06-24T08:12:19;23.20;99.90
20384;DHT22;46458;50.966;7.002;2023-06-24T08:14:48;23.30;99.90
20384;DHT22;46458;50.966;7.002;2023-06-24T08:17:16;23.40;99.90
20384;DHT22;46458;50.966;7.002;2023-06-24T08:19:45;23.40;99.90
20384;DHT22;46458;50.966;7.002;2023-06-24T08:22:17;23.40;99.90
20384;DHT22;46458;50.966;7.002;2023-06-24T08:24:45;23.50;99.90
20384;DHT22;46458;50.966;7.002;2023-06-24T08:27:15;23.60;99.90
20384;DHT22;46458;50.966;7.002;2023-06-24T08:29:46;23.70;99.90
20384;DHT22;46458;50.966;7.002;2023-06-24T08:32:15;23.80;99.90
20384;DHT22;46458;50.966;7.002;2023-06-24T08:34:44;23.90;99.90
20384;DHT22;46458;50.966;7.002;2023-06-24T08:37:15;24.00;99.90
20384;DHT22;46458;50.966;7.002;2023-06-24T08:39:44;24.10;99.90
20384;DHT22;46458;50.966;7.002;2023-06-24T08:42:13;24.20;99.90
20384;DHT22;46458;50.966;7.002;2023-06-24T08:44:42;24.20;99.90
20384;DHT22;46458;50.966;7.002;2023-06-24T08:47:11;24.30;99.90
20384;DHT22;46458;50.966;7.002;2023-06-24T08:49:52;24.50;99.90
20384;DHT22;46458;50.966;7.002;2023-06-24T08:52:26;24.50;99.90
20384;DHT22;46458;50.966;7.002;2023-06-24T08:54:59;24.50;99.90
20384;DHT22;46458;50.966;7.002;2023-06-24T08:57:28;24.60;99.90
20384;DHT22;46458;50.966;7.002;2023-06-24T08:59:57;24.80;99.90
20384;DHT22;46458;50.966;7.002;2023-06-24T09:02:27;24.90;99.90
20384;DHT22;46458;50.966;7.002;2023-06-24T09:04:57;25.00;99.90
20384;DHT22;46458;50.966;7.002;2023-06-24T09:07:29;25.10;99.90
20384;DHT22;46458;50.966;7.002;2023-06-24T09:09:58;25.20;99.90
20384;DHT22;46458;50.966;7.002;2023-06-24T09:12:26;25.30;99.90
20384;DHT22;46458;50.966;7.002;2023-06-24T09:14:55;25.40;99.90
20384;DHT22;46458;50.966;7.002;2023-06-24T09:17:24;25.50;99.90
20384;DHT22;46458;50.966;7.002;2023-06-24T09:20:03;25.60;99.90
20384;DHT22;46458;50.966;7.002;2023-06-24T09:22:40;25.80;99.90
20384;DHT22;46458;50.966;7.002;2023-06-24T09:25:09;26.00;99.90
20384;DHT22;46458;50.966;7.002;2023-06-24T09:27:38;26.10;99.90
20384;DHT22;46458;50.966;7.002;2023-06-24T09:30:17;26.30;99.90
20384;DHT22;46458;50.966;7.002;2023-06-24T09:32:49;26.30;99.90
20384;DHT22;46458;50.966;7.002;2023-06-24T09:35:19;26.50;99.90
20384;DHT22;46458;50.966;7.002;2023-06-24T09:37:52;26.60;99.90
20384;DHT22;46458;50.966;7.002;2023-06-24T09:40:22;26.70;99.90
20384;DHT22;46458;50.966;7.002;2023-06-24T09:42:52;26.80;99.90
20384;DHT22;46458;50.966;7.002;2023-06-24T09:45:25;26.90;99.90
20384;DHT22;46458;50.966;7.002;2023-06-24T09:47:55;26.90;99.90
20384;DHT22;46458;50.966;7.002;2023-06-24T09:50:25;26.70;99.90
20384;DHT22;46458;50.966;7.002;2023-06-24T09:52:57;27.00;99.90
20384;DHT22;46458;50.966;7.002;2023-06-24T09:55:28;27.30;99.90
20384;DHT22;46458;50.966;7.002;2023-06-24T09:57:57;27.40;99.90
20384;DHT22;46458;50.966;7.002;2023-06-24T10:00:26;27.50;99.90
20384;DHT22;46458;50.966;7.002;2023-06-24T10:02:55;27.70;99.90
20384;DHT22;46458;50.966;7.002;2023-06-24T10:05:24;28.00;99.90
20384;DHT22;46458;50.966;7.002;2023-06-24T10:07:56;28.20;99.90
20384;DHT22;46458;50.966;7.002;2023-06-24T10:10:25;28.20;99.90
20384;DHT22;46458;50.966;7.002;2023-06-24T10:12:53;28.20;99.90
20384;DHT22;46458;50.966;7.002;2023-06-24T10:15:22;28.10;99.90
20384;DHT22;46458;50.966;7.002;2023-06-24T10:17:56;28.00;99.90
20384;DHT22;46458;50.966;7.002;2023-06-24T10:20:29;28.10;99.90
20384;DHT22;46458;50.966;7.002;2023-06-24T10:23:06;28.30;99.90
20384;DHT22;46458;50.966;7.002;2023-06-24T10:25:36;28.40;99.90
20384;DHT22;46458;50.966;7.002;2023-06-24T10:28:05;28.30;99.90
20384;DHT22;46458;50.966;7.002;2023-06-24T10:30:37;28.40;99.90
20384;DHT22;46458;50.966;7.002;2023-06-24T10:33:10;28.30;99.90
20384;DHT22;46458;50.966;7.002;2023-06-24T10:35:42;28.20;99.90
20384;DHT22;46458;50.966;7.002;2023-06-24T10:38:13;28.20;99.90
20384;DHT22;46458;50.966;7.002;2023-06-24T10:40:43;28.40;99.90
20384;DHT22;46458;50.966;7.002;2023-06-24T10:43:28;28.30;99.90
20384;DHT22;46458;50.966;7.002;2023-06-24T10:45:58;27.80;99.90
20384;DHT22;46458;50.966;7.002;2023-06-24T10:48:27;27.90;99.90
20384;DHT22;46458;50.966;7.002;2023-06-24T10:50:57;27.50;99.90
20384;DHT22;46458;50.966;7.002;2023-06-24T10:53:31;27.60;99.90
20384;DHT22;46458;50.966;7.002;2023-06-24T10:56:02;27.70;99.90
20384;DHT22;46458;50.966;7.002;2023-06-24T10:58:30;27.70;99.90
20384;DHT22;46458;50.966;7.002;2023-06-24T11:01:06;27.70;99.90
20384;DHT22;46458;50.966;7.002;2023-06-24T11:03:36;27.30;99.90
20384;DHT22;46458;50.966;7.002;2023-06-24T11:06:10;27.10;99.90
20384;DHT22;46458;50.966;7.002;2023-06-24T11:08:48;26.90;99.90
20384;DHT22;46458;50.966;7.002;2023-06-24T11:11:20;27.10;99.90
20384;DHT22;46458;50.966;7.002;2023-06-24T11:13:51;27.40;99.90
20384;DHT22;46458;50.966;7.002;2023-06-24T11:16:21;27.40;99.90
20384;DHT22;46458;50.966;7.002;2023-06-24T11:18:52;27.50;99.90
20384;DHT22;46458;50.966;7.002;2023-06-24T11:21:31;27.90;99.90
20384;DHT22;46458;50.966;7.002;2023-06-24T11:24:04;27.90;99.90
20384;DHT22;46458;50.966;7.002;2023-06-24T11:26:39;28.20;99.90
20384;DHT22;46458;50.966;7.002;2023-06-24T11:29:11;28.50;99.90
20384;DHT22;46458;50.966;7.002;2023-06-24T11:31:40;28.80;99.90
20384;DHT22;46458;50.966;7.002;2023-06-24T11:34:09;29.10;99.90
20384;DHT22;46458;50.966;7.002;2023-06-24T11:36:38;29.00;98.10
20384;DHT22;46458;50.966;7.002;2023-06-24T11:39:20;29.30;99.00
20384;DHT22;46458;50.966;7.002;2023-06-24T11:41:49;29.70;99.60
20384;DHT22;46458;50.966;7.002;2023-06-24T11:44:21;29.50;99.90
20384;DHT22;46458;50.966;7.002;2023-06-24T11:46:52;29.10;97.80
20384;DHT22;46458;50.966;7.002;2023-06-24T11:49:20;28.60;98.60
20384;DHT22;46458;50.966;7.002;2023-06-24T11:51:50;28.70;99.10
20384;DHT22;46458;50.966;7.002;2023-06-24T11:54:22;28.60;99.50
20384;DHT22;46458;50.966;7.002;2023-06-24T11:56:51;28.50;99.90
20384;DHT22;46458;50.966;7.002;2023-06-24T11:59:22;28.70;99.90
20384;DHT22;46458;50.966;7.002;2023-06-24T12:02:00;28.80;99.40
20384;DHT22;46458;50.966;7.002;2023-06-24T12:04:30;29.30;99.30
20384;DHT22;46458;50.966;7.002;2023-06-24T12:07:00;29.90;98.80
20384;DHT22;46458;50.966;7.002;2023-06-24T12:09:37;30.60;98.60
20384;DHT22;46458;50.966;7.002;2023-06-24T12:12:07;30.40;97.80
20384;DHT22;46458;50.966;7.002;2023-06-24T12:14:39;30.80;96.30
20384;DHT22;46458;50.966;7.002;2023-06-24T12:17:09;31.00;97.20
20384;DHT22;46458;50.966;7.002;2023-06-24T12:19:39;30.70;98.40
20384;DHT22;46458;50.966;7.002;2023-06-24T12:22:10;30.50;99.10
20384;DHT22;46458;50.966;7.002;2023-06-24T12:24:45;30.50;98.50
20384;DHT22;46458;50.966;7.002;2023-06-24T12:27:16;30.20;97.40
20384;DHT22;46458;50.966;7.002;2023-06-24T12:29:45;29.60;97.40
20384;DHT22;46458;50.966;7.002;2023-06-24T12:32:14;29.80;96.90
20384;DHT22;46458;50.966;7.002;2023-06-24T12:34:43;30.20;97.60
20384;DHT22;46458;50.966;7.002;2023-06-24T12:37:11;30.90;96.80
20384;DHT22;46458;50.966;7.002;2023-06-24T12:39:40;31.60;95.90
20384;DHT22;46458;50.966;7.002;2023-06-24T12:42:12;31.90;96.30
20384;DHT22;46458;50.966;7.002;2023-06-24T12:44:41;31.90;96.10
20384;DHT22;46458;50.966;7.002;2023-06-24T12:47:09;32.20;95.80
20384;DHT22;46458;50.966;7.002;2023-06-24T12:49:38;31.80;95.80
20384;DHT22;46458;50.966;7.002;2023-06-24T12:52:07;31.70;97.20
20384;DHT22;46458;50.966;7.002;2023-06-24T12:54:36;31.90;95.80
20384;DHT22;46458;50.966;7.002;2023-06-24T12:57:05;32.20;95.70
20384;DHT22;46458;50.966;7.002;2023-06-24T12:59:37;32.90;94.60
20384;DHT22;46458;50.966;7.002;2023-06-24T13:02:06;33.70;93.90
20384;DHT22;46458;50.966;7.002;2023-06-24T13:04:35;33.80;93.70
20384;DHT22;46458;50.966;7.002;2023-06-24T13:07:04;34.00;93.20
20384;DHT22;46458;50.966;7.002;2023-06-24T13:09:35;35.80;91.70
20384;DHT22;46458;50.966;7.002;2023-06-24T13:12:05;37.10;90.00
20384;DHT22;46458;50.966;7.002;2023-06-24T13:14:37;37.30;86.20
20384;DHT22;46458;50.966;7.002;2023-06-24T13:17:06;36.80;88.30
20384;DHT22;46458;50.966;7.002;2023-06-24T13:19:35;36.00;87.70
20384;DHT22;46458;50.966;7.002;2023-06-24T13:22:05;35.90;88.10
20384;DHT22;46458;50.966;7.002;2023-06-24T13:24:36;36.00;87.70
20384;DHT22;46458;50.966;7.002;2023-06-24T13:27:06;35.20;89.20
20384;DHT22;46458;50.966;7.002;2023-06-24T13:29:37;34.80;90.40
20384;DHT22;46458;50.966;7.002;2023-06-24T13:32:07;34.10;90.80
20384;DHT22;46458;50.966;7.002;2023-06-24T13:34:36;33.60;90.80
20384;DHT22;46458;50.966;7.002;2023-06-24T13:37:05;33.70;90.40
20384;DHT22;46458;50.966;7.002;2023-06-24T13:39:34;34.20;90.70
20384;DHT22;46458;50.966;7.002;2023-06-24T13:42:04;34.80;90.30
20384;DHT22;46458;50.966;7.002;2023-06-24T13:44:33;34.60;90.20
20384;DHT22;46458;50.966;7.002;2023-06-24T13:47:05;34.20;90.40
20384;DHT22;46458;50.966;7.002;2023-06-24T13:49:34;34.40;90.70
20384;DHT22;46458;50.966;7.002;2023-06-24T13:52:03;35.30;90.50
20384;DHT22;46458;50.966;7.002;2023-06-24T13:54:32;36.00;88.00
20384;DHT22;46458;50.966;7.002;2023-06-24T13:57:01;36.80;85.40
20384;DHT22;46458;50.966;7.002;2023-06-24T13:59:30;38.20;83.80
20384;DHT22;46458;50.966;7.002;2023-06-24T14:01:59;39.30;80.70
20384;DHT22;46458;50.966;7.002;2023-06-24T14:04:32;40.50;76.60
20384;DHT22;46458;50.966;7.002;2023-06-24T14:07:01;41.90;74.10
20384;DHT22;46458;50.966;7.002;2023-06-24T14:09:30;42.70;71.70
20384;DHT22;46458;50.966;7.002;2023-06-24T14:11:59;42.50;70.40
20384;DHT22;46458;50.966;7.002;2023-06-24T14:14:28;43.50;67.30
20384;DHT22;46458;50.966;7.002;2023-06-24T14:16:58;44.50;64.10
20384;DHT22;46458;50.966;7.002;2023-06-24T14:19:26;44.70;63.30
20384;DHT22;46458;50.966;7.002;2023-06-24T14:21:58;45.00;61.60
20384;DHT22;46458;50.966;7.002;2023-06-24T14:24:27;45.60;59.80
20384;DHT22;46458;50.966;7.002;2023-06-24T14:26:56;45.80;59.40
20384;DHT22;46458;50.966;7.002;2023-06-24T14:29:24;46.00;59.00
20384;DHT22;46458;50.966;7.002;2023-06-24T14:31:56;45.70;58.10
20384;DHT22;46458;50.966;7.002;2023-06-24T14:34:31;45.70;58.10
20384;DHT22;46458;50.966;7.002;2023-06-24T14:37:03;45.10;58.00
20384;DHT22;46458;50.966;7.002;2023-06-24T14:39:32;42.40;57.30
20384;DHT22;46458;50.966;7.002;2023-06-24T14:42:01;40.10;61.10
20384;DHT22;46458;50.966;7.002;2023-06-24T14:44:29;41.80;60.60
20384;DHT22;46458;50.966;7.002;2023-06-24T14:46:58;43.60;58.30
20384;DHT22;46458;50.966;7.002;2023-06-24T14:49:28;45.50;56.40
20384;DHT22;46458;50.966;7.002;2023-06-24T14:51:57;46.80;55.20
20384;DHT22;46458;50.966;7.002;2023-06-24T14:54:29;47.50;54.20
20384;DHT22;46458;50.966;7.002;2023-06-24T14:56:58;47.80;53.40
20384;DHT22;46458;50.966;7.002;2023-06-24T14:59:27;48.00;53.20
20384;DHT22;46458;50.966;7.002;2023-06-24T15:01:56;48.00;51.30
20384;DHT22;46458;50.966;7.002;2023-06-24T15:04:25;48.00;52.00
20384;DHT22;46458;50.966;7.002;2023-06-24T15:06:54;48.00;51.20
20384;DHT22;46458;50.966;7.002;2023-06-24T15:09:23;48.20;51.50
20384;DHT22;46458;50.966;7.002;2023-06-24T15:11:57;48.40;51.30
20384;DHT22;46458;50.966;7.002;2023-06-24T15:14:26;48.40;50.60
20384;DHT22;46458;50.966;7.002;2023-06-24T15:16:54;48.40;49.20
20384;DHT22;46458;50.966;7.002;2023-06-24T15:19:24;47.80;49.30
20384;DHT22;46458;50.966;7.002;2023-06-24T15:21:53;47.80;50.40
20384;DHT22;46458;50.966;7.002;2023-06-24T15:24:22;47.80;47.90
20384;DHT22;46458;50.966;7.002;2023-06-24T15:26:51;47.60;49.30
20384;DHT22;46458;50.966;7.002;2023-06-24T15:29:22;47.70;49.00
20384;DHT22;46458;50.966;7.002;2023-06-24T15:31:51;47.80;48.60
20384;DHT22;46458;50.966;7.002;2023-06-24T15:34:20;47.60;48.80
20384;DHT22;46458;50.966;7.002;2023-06-24T15:36:49;47.40;47.90
20384;DHT22;46458;50.966;7.002;2023-06-24T15:39:18;47.50;49.70
20384;DHT22;46458;50.966;7.002;2023-06-24T15:41:47;46.80;48.40
20384;DHT22;46458;50.966;7.002;2023-06-24T15:44:17;46.40;48.20
20384;DHT22;46458;50.966;7.002;2023-06-24T15:46:49;46.00;50.10
20384;DHT22;46458;50.966;7.002;2023-06-24T15:49:18;45.50;50.00
20384;DHT22;46458;50.966;7.002;2023-06-24T15:51:47;44.90;51.40